sensor_id;sensor_type;location;lat;lon;timestamp;pressure;altitude;pressure_sealevel;temperature;humidity
66524;BME280;53350;52.210;5.160;2022-09-03T00:00:02;101176.66;;;20.27;40.78
66524;BME280;53350;52.210;5.160;2022-09-03T00:02:32;101176.72;;;20.25;40.52
66524;BME280;53350;52.210;5.160;2022-09-03T00:05:04;101170.78;;;20.22;40.81
66524;BME280;53350;52.210;5.160;2022-09-03T00:07:33;101173.69;;;20.15;41.17
66524;BME280;53350;52.210;5.160;2022-09-03T00:10:03;101173.00;;;20.12;40.98
66524;BME280;53350;52.210;5.160;2022-09-03T00:12:31;101167.00;;;20.10;41.05
66524;BME280;53350;52.210;5.160;2022-09-03T00:14:59;101165.25;;;20.10;41.36
66524;BME280;53350;52.210;5.160;2022-09-03T00:17:28;101165.59;;;20.03;41.27
66524;BME280;53350;52.210;5.160;2022-09-03T00:19:57;101170.13;;;19.99;41.27
66524;BME280;53350;52.210;5.160;2022-09-03T00:22:27;101168.78;;;19.90;41.43
66524;BME280;53350;52.210;5.160;2022-09-03T00:24:55;101169.63;;;19.91;41.56
66524;BME280;53350;52.210;5.160;2022-09-03T00:27:24;101161.34;;;19.81;41.81
66524;BME280;53350;52.210;5.160;2022-09-03T00:29:53;101159.59;;;19.82;41.79
66524;BME280;53350;52.210;5.160;2022-09-03T00:32:20;101163.97;;;19.81;41.74
66524;BME280;53350;52.210;5.160;2022-09-03T00:34:50;101157.88;;;19.80;41.67
66524;BME280;53350;52.210;5.160;2022-09-03T00:37:21;101160.50;;;19.80;42.13
66524;BME280;53350;52.210;5.160;2022-09-03T00:39:48;101157.81;;;19.82;41.82
66524;BME280;53350;52.210;5.160;2022-09-03T00:42:21;101151.22;;;19.73;42.37
66524;BME280;53350;52.210;5.160;2022-09-03T00:44:55;101153.84;;;19.73;42.13
66524;BME280;53350;52.210;5.160;2022-09-03T00:47:26;101155.59;;;19.73;42.16
66524;BME280;53350;52.210;5.160;2022-09-03T00:49:58;101153.84;;;19.73;41.98
66524;BME280;53350;52.210;5.160;2022-09-03T00:52:32;101151.38;;;19.70;42.25
66524;BME280;53350;52.210;5.160;2022-09-03T00:55:06;101148.91;;;19.67;42.16
66524;BME280;53350;52.210;5.160;2022-09-03T00:57:39;101148.09;;;19.65;42.47
66524;BME280;53350;52.210;5.160;2022-09-03T01:00:10;101148.59;;;19.54;42.93
66524;BME280;53350;52.210;5.160;2022-09-03T01:02:40;101149.56;;;19.52;42.72
66524;BME280;53350;52.210;5.160;2022-09-03T01:05:16;101156.28;;;19.57;42.59
66524;BME280;53350;52.210;5.160;2022-09-03T01:07:48;101156.44;;;19.54;42.64
66524;BME280;53350;52.210;5.160;2022-09-03T01:10:20;101159.25;;;19.50;42.72
66524;BME280;53350;52.210;5.160;2022-09-03T01:12:53;101149.78;;;19.47;42.85
66524;BME280;53350;52.210;5.160;2022-09-03T01:15:26;101161.22;;;19.44;42.93
66524;BME280;53350;52.210;5.160;2022-09-03T01:18:01;101152.69;;;19.41;43.09
66524;BME280;53350;52.210;5.160;2022-09-03T01:20:34;101151.88;;;19.39;43.09
66524;BME280;53350;52.210;5.160;2022-09-03T01:25:51;101160.00;;;19.33;43.21
66524;BME280;53350;52.210;5.160;2022-09-03T01:28:23;101161.78;;;19.32;43.13
66524;BME280;53350;52.210;5.160;2022-09-03T01:30:56;101160.00;;;19.33;43.27
66524;BME280;53350;52.210;5.160;2022-09-03T01:33:28;101162.63;;;19.33;43.31
66524;BME280;53350;52.210;5.160;2022-09-03T01:35:59;101156.63;;;19.31;43.08
66524;BME280;53350;52.210;5.160;2022-09-03T01:38:31;101156.63;;;19.31;43.25
66524;BME280;53350;52.210;5.160;2022-09-03T01:41:00;101160.13;;;19.29;43.34
66524;BME280;53350;52.210;5.160;2022-09-03T01:43:47;101163.66;;;19.28;43.59
66524;BME280;53350;52.210;5.160;2022-09-03T01:46:18;101164.50;;;19.29;43.49
66524;BME280;53350;52.210;5.160;2022-09-03T01:48:49;101158.44;;;19.28;43.36
66524;BME280;53350;52.210;5.160;2022-09-03T01:51:19;101161.03;;;19.28;43.35
66524;BME280;53350;52.210;5.160;2022-09-03T01:56:43;101161.19;;;19.25;43.43
66524;BME280;53350;52.210;5.160;2022-09-03T01:59:14;101163.78;;;19.25;43.61
66524;BME280;53350;52.210;5.160;2022-09-03T02:01:45;101157.00;;;19.21;43.69
66524;BME280;53350;52.210;5.160;2022-09-03T02:04:16;101160.44;;;19.22;43.59
66524;BME280;53350;52.210;5.160;2022-09-03T02:06:44;101164.91;;;19.20;43.94
66524;BME280;53350;52.210;5.160;2022-09-03T02:09:12;101152.63;;;19.22;43.75
66524;BME280;53350;52.210;5.160;2022-09-03T02:11:39;101157.91;;;19.20;43.84
66524;BME280;53350;52.210;5.160;2022-09-03T02:14:05;101151.78;;;19.21;43.73
66524;BME280;53350;52.210;5.160;2022-09-03T02:16:33;101153.56;;;19.21;43.78
66524;BME280;53350;52.210;5.160;2022-09-03T02:19:00;101145.78;;;19.19;43.76
66524;BME280;53350;52.210;5.160;2022-09-03T02:21:30;101149.25;;;19.20;43.91
66524;BME280;53350;52.210;5.160;2022-09-03T02:23:58;101154.72;;;19.14;43.73
66524;BME280;53350;52.210;5.160;2022-09-03T02:26:25;101150.09;;;19.00;44.05
66524;BME280;53350;52.210;5.160;2022-09-03T02:28:52;101151.59;;;19.05;44.09
66524;BME280;53350;52.210;5.160;2022-09-03T02:31:19;101151.72;;;19.02;44.29
66524;BME280;53350;52.210;5.160;2022-09-03T02:33:47;101153.56;;;19.00;44.22
66524;BME280;53350;52.210;5.160;2022-09-03T02:36:14;101155.50;;;18.95;44.45
66524;BME280;53350;52.210;5.160;2022-09-03T02:38:42;101146.91;;;18.93;44.42
66524;BME280;53350;52.210;5.160;2022-09-03T02:41:09;101143.38;;;18.94;44.28
66524;BME280;53350;52.210;5.160;2022-09-03T02:43:39;101148.66;;;18.92;44.40
66524;BME280;53350;52.210;5.160;2022-09-03T02:46:08;101145.22;;;18.92;44.39
66524;BME280;53350;52.210;5.160;2022-09-03T02:48:35;101142.78;;;18.87;44.44
66524;BME280;53350;52.210;5.160;2022-09-03T02:51:02;101149.78;;;18.85;44.52
66524;BME280;53350;52.210;5.160;2022-09-03T02:53:29;101138.66;;;18.82;44.73
66524;BME280;53350;52.210;5.160;2022-09-03T02:55:58;101143.13;;;18.78;44.87
66524;BME280;53350;52.210;5.160;2022-09-03T02:58:25;101149.44;;;18.72;44.91
66524;BME280;53350;52.210;5.160;2022-09-03T03:00:51;101142.03;;;18.63;44.76
66524;BME280;53350;52.210;5.160;2022-09-03T03:03:18;101140.38;;;18.60;44.94
66524;BME280;53350;52.210;5.160;2022-09-03T03:05:45;101137.06;;;18.57;45.07
66524;BME280;53350;52.210;5.160;2022-09-03T03:08:13;101139.69;;;18.57;45.30
66524;BME280;53350;52.210;5.160;2022-09-03T03:10:41;101140.50;;;18.57;45.28
66524;BME280;53350;52.210;5.160;2022-09-03T03:13:09;101139.84;;;18.52;45.30
66524;BME280;53350;52.210;5.160;2022-09-03T03:15:35;101138.09;;;18.53;45.38
66524;BME280;53350;52.210;5.160;2022-09-03T03:18:01;101133.78;;;18.52;45.37
66524;BME280;53350;52.210;5.160;2022-09-03T03:20:28;101132.06;;;18.51;45.50
66524;BME280;53350;52.210;5.160;2022-09-03T03:22:54;101138.22;;;18.50;45.45
66524;BME280;53350;52.210;5.160;2022-09-03T03:25:22;101129.59;;;18.48;45.46
66524;BME280;53350;52.210;5.160;2022-09-03T03:27:48;101114.47;;;18.35;45.36
66524;BME280;53350;52.210;5.160;2022-09-03T03:30:14;101127.91;;;18.47;45.43
66524;BME280;53350;52.210;5.160;2022-09-03T03:32:40;101131.38;;;18.47;45.47
66524;BME280;53350;52.210;5.160;2022-09-03T03:35:07;101132.28;;;18.46;45.61
66524;BME280;53350;52.210;5.160;2022-09-03T03:37:35;101126.09;;;18.49;45.58
66524;BME280;53350;52.210;5.160;2022-09-03T03:40:02;101137.28;;;18.51;45.40
66524;BME280;53350;52.210;5.160;2022-09-03T03:42:32;101128.44;;;18.55;45.48
66524;BME280;53350;52.210;5.160;2022-09-03T03:44:59;101136.38;;;18.52;45.44
66524;BME280;53350;52.210;5.160;2022-09-03T03:47:26;101137.56;;;18.45;45.75
66524;BME280;53350;52.210;5.160;2022-09-03T03:49:52;101142.63;;;18.48;45.53
66524;BME280;53350;52.210;5.160;2022-09-03T03:52:19;101151.28;;;18.50;45.54
66524;BME280;53350;52.210;5.160;2022-09-03T03:54:45;101144.28;;;18.50;45.60
66524;BME280;53350;52.210;5.160;2022-09-03T03:57:13;101138.09;;;18.53;45.34
66524;BME280;53350;52.210;5.160;2022-09-03T03:59:41;101141.72;;;18.49;45.50
66524;BME280;53350;52.210;5.160;2022-09-03T04:02:07;101143.66;;;18.43;45.64
66524;BME280;53350;52.210;5.160;2022-09-03T04:04:33;101142.06;;;18.41;45.59
66524;BME280;53350;52.210;5.160;2022-09-03T04:06:59;101141.19;;;18.40;45.76
66524;BME280;53350;52.210;5.160;2022-09-03T04:09:26;101134.28;;;18.39;45.73
66524;BME280;53350;52.210;5.160;2022-09-03T04:11:52;101135.13;;;18.40;45.69
66524;BME280;53350;52.210;5.160;2022-09-03T04:14:20;101132.66;;;18.37;45.75
66524;BME280;53350;52.210;5.160;2022-09-03T04:16:48;101140.53;;;18.35;45.79
66524;BME280;53350;52.210;5.160;2022-09-03T04:19:15;101133.69;;;18.33;45.84
66524;BME280;53350;52.210;5.160;2022-09-03T04:21:42;101137.19;;;18.32;45.90
66524;BME280;53350;52.210;5.160;2022-09-03T04:24:08;101137.19;;;18.32;46.03
66524;BME280;53350;52.210;5.160;2022-09-03T04:26:34;101133.13;;;18.24;46.10
66524;BME280;53350;52.210;5.160;2022-09-03T04:29:02;101134.00;;;18.25;46.02
66524;BME280;53350;52.210;5.160;2022-09-03T04:31:28;101127.97;;;18.23;46.16
66524;BME280;53350;52.210;5.160;2022-09-03T04:33:56;101128.09;;;18.20;46.14
66524;BME280;53350;52.210;5.160;2022-09-03T04:36:23;101128.22;;;18.17;46.32
66524;BME280;53350;52.210;5.160;2022-09-03T04:38:50;101129.25;;;18.13;46.25
66524;BME280;53350;52.210;5.160;2022-09-03T04:41:19;101122.47;;;18.08;46.51
66524;BME280;53350;52.210;5.160;2022-09-03T04:43:45;101127.84;;;18.04;46.66
66524;BME280;53350;52.210;5.160;2022-09-03T04:46:13;101131.44;;;18.01;46.68
66524;BME280;53350;52.210;5.160;2022-09-03T04:48:40;101134.16;;;17.98;46.56
66524;BME280;53350;52.210;5.160;2022-09-03T04:51:08;101135.06;;;17.97;46.75
66524;BME280;53350;52.210;5.160;2022-09-03T04:53:36;101134.34;;;17.94;46.86
66524;BME280;53350;52.210;5.160;2022-09-03T04:56:02;101132.63;;;17.93;46.79
66524;BME280;53350;52.210;5.160;2022-09-03T04:58:29;101137.84;;;17.93;46.82
66524;BME280;53350;52.210;5.160;2022-09-03T05:00:55;101130.94;;;17.92;46.88
66524;BME280;53350;52.210;5.160;2022-09-03T05:03:22;101136.09;;;17.93;46.88
66524;BME280;53350;52.210;5.160;2022-09-03T05:05:52;101137.72;;;17.96;46.83
66524;BME280;53350;52.210;5.160;2022-09-03T05:08:19;101131.72;;;17.94;46.81
66524;BME280;53350;52.210;5.160;2022-09-03T05:10:46;101128.34;;;17.92;46.88
66524;BME280;53350;52.210;5.160;2022-09-03T05:13:12;101126.94;;;17.81;47.23
66524;BME280;53350;52.210;5.160;2022-09-03T05:15:38;101127.00;;;17.80;47.20
66524;BME280;53350;52.210;5.160;2022-09-03T05:18:09;101134.81;;;17.80;47.18
66524;BME280;53350;52.210;5.160;2022-09-03T05:20:36;101142.63;;;17.80;47.25
66524;BME280;53350;52.210;5.160;2022-09-03T05:23:02;101133.91;;;17.81;47.04
66524;BME280;53350;52.210;5.160;2022-09-03T05:25:30;101134.69;;;17.83;47.20
66524;BME280;53350;52.210;5.160;2022-09-03T05:27:57;101134.75;;;17.81;47.14
66524;BME280;53350;52.210;5.160;2022-09-03T05:30:23;101132.22;;;17.80;47.14
66524;BME280;53350;52.210;5.160;2022-09-03T05:32:50;101136.47;;;17.82;47.30
66524;BME280;53350;52.210;5.160;2022-09-03T05:35:16;101132.28;;;17.78;47.30
66524;BME280;53350;52.210;5.160;2022-09-03T05:37:42;101127.88;;;17.80;47.27
66524;BME280;53350;52.210;5.160;2022-09-03T05:40:09;101129.59;;;17.80;47.30
66524;BME280;53350;52.210;5.160;2022-09-03T05:42:37;101125.31;;;17.79;47.35
66524;BME280;53350;52.210;5.160;2022-09-03T05:45:06;101140.09;;;17.78;47.45
66524;BME280;53350;52.210;5.160;2022-09-03T05:47:34;101130.47;;;17.80;47.52
66524;BME280;53350;52.210;5.160;2022-09-03T05:50:01;101120.94;;;17.79;47.27
66524;BME280;53350;52.210;5.160;2022-09-03T05:52:27;101129.59;;;17.80;47.51
66524;BME280;53350;52.210;5.160;2022-09-03T05:54:53;101127.94;;;17.79;47.52
66524;BME280;53350;52.210;5.160;2022-09-03T05:57:20;101131.19;;;17.84;47.47
66524;BME280;53350;52.210;5.160;2022-09-03T05:59:47;101128.47;;;17.87;47.34
66524;BME280;53350;52.210;5.160;2022-09-03T06:02:13;101132.69;;;17.91;47.49
66524;BME280;53350;52.210;5.160;2022-09-03T06:04:40;101130.84;;;17.95;47.30
66524;BME280;53350;52.210;5.160;2022-09-03T06:07:06;101127.16;;;18.00;47.43
66524;BME280;53350;52.210;5.160;2022-09-03T06:09:32;101128.75;;;18.03;47.36
66524;BME280;53350;52.210;5.160;2022-09-03T06:11:59;101137.38;;;18.05;47.53
66524;BME280;53350;52.210;5.160;2022-09-03T06:14:25;101134.72;;;18.06;47.39
66524;BME280;53350;52.210;5.160;2022-09-03T06:16:53;101137.97;;;18.12;47.36
66524;BME280;53350;52.210;5.160;2022-09-03T06:19:20;101139.56;;;18.16;47.23
66524;BME280;53350;52.210;5.160;2022-09-03T06:21:47;101131.53;;;18.20;47.16
66524;BME280;53350;52.210;5.160;2022-09-03T06:24:14;101132.22;;;18.25;47.23
66524;BME280;53350;52.210;5.160;2022-09-03T06:26:40;101138.84;;;18.34;47.02
66524;BME280;53350;52.210;5.160;2022-09-03T06:29:07;101137.81;;;18.38;46.94
66524;BME280;53350;52.210;5.160;2022-09-03T06:31:33;101135.00;;;18.43;46.84
66524;BME280;53350;52.210;5.160;2022-09-03T06:34:01;101138.09;;;18.53;46.82
66524;BME280;53350;52.210;5.160;2022-09-03T06:36:27;101134.19;;;18.63;46.60
66524;BME280;53350;52.210;5.160;2022-09-03T06:38:55;101137.41;;;18.70;46.52
66524;BME280;53350;52.210;5.160;2022-09-03T06:41:22;101133.63;;;18.77;46.18
66524;BME280;53350;52.210;5.160;2022-09-03T06:43:49;101132.47;;;18.84;46.08
66524;BME280;53350;52.210;5.160;2022-09-03T06:46:16;101138.22;;;18.92;45.91
66524;BME280;53350;52.210;5.160;2022-09-03T06:48:43;101138.88;;;18.98;45.79
66524;BME280;53350;52.210;5.160;2022-09-03T06:51:11;101135.22;;;19.02;45.81
66524;BME280;53350;52.210;5.160;2022-09-03T06:53:39;101133.31;;;19.05;45.85
66524;BME280;53350;52.210;5.160;2022-09-03T06:56:06;101137.56;;;19.08;45.83
66524;BME280;53350;52.210;5.160;2022-09-03T06:58:33;101141.47;;;19.18;45.85
66524;BME280;53350;52.210;5.160;2022-09-03T07:01:01;101142.75;;;19.28;45.73
66524;BME280;53350;52.210;5.160;2022-09-03T07:03:28;101141.44;;;19.39;45.29
66524;BME280;53350;52.210;5.160;2022-09-03T07:05:58;101142.16;;;19.42;45.18
66524;BME280;53350;52.210;5.160;2022-09-03T07:08:26;101141.66;;;19.53;44.80
66524;BME280;53350;52.210;5.160;2022-09-03T07:10:52;101143.16;;;19.59;44.97
66524;BME280;53350;52.210;5.160;2022-09-03T07:13:18;101150.09;;;19.60;45.10
66524;BME280;53350;52.210;5.160;2022-09-03T07:15:45;101147.69;;;19.74;44.98
66524;BME280;53350;52.210;5.160;2022-09-03T07:18:11;101153.56;;;19.79;44.72
66524;BME280;53350;52.210;5.160;2022-09-03T07:20:37;101153.94;;;19.91;44.77
66524;BME280;53350;52.210;5.160;2022-09-03T07:23:04;101151.81;;;19.99;44.67
66524;BME280;53350;52.210;5.160;2022-09-03T07:25:31;101141.69;;;20.10;44.03
66524;BME280;53350;52.210;5.160;2022-09-03T07:27:57;101144.84;;;20.17;43.99
66524;BME280;53350;52.210;5.160;2022-09-03T07:30:24;101142.50;;;20.30;43.94
66524;BME280;53350;52.210;5.160;2022-09-03T07:32:50;101138.44;;;20.42;43.62
66524;BME280;53350;52.210;5.160;2022-09-03T07:35:18;101140.53;;;20.53;43.58
66524;BME280;53350;52.210;5.160;2022-09-03T07:37:44;101146.84;;;20.66;43.29
66524;BME280;53350;52.210;5.160;2022-09-03T07:40:10;101141.19;;;20.75;43.35
66524;BME280;53350;52.210;5.160;2022-09-03T07:42:40;101145.31;;;20.97;43.27
66524;BME280;53350;52.210;5.160;2022-09-03T07:45:07;101140.22;;;21.11;42.67
66524;BME280;53350;52.210;5.160;2022-09-03T07:47:34;101141.97;;;21.28;42.35
66524;BME280;53350;52.210;5.160;2022-09-03T07:50:01;101143.97;;;21.41;42.48
66524;BME280;53350;52.210;5.160;2022-09-03T07:52:27;101148.41;;;21.56;42.04
66524;BME280;53350;52.210;5.160;2022-09-03T07:54:54;101142.69;;;21.65;41.74
66524;BME280;53350;52.210;5.160;2022-09-03T07:57:20;101144.63;;;21.78;41.64
66524;BME280;53350;52.210;5.160;2022-09-03T07:59:47;101143.88;;;21.92;41.23
66524;BME280;53350;52.210;5.160;2022-09-03T08:02:14;101143.94;;;22.06;41.09
66524;BME280;53350;52.210;5.160;2022-09-03T08:04:40;101148.13;;;22.24;40.62
66524;BME280;53350;52.210;5.160;2022-09-03T08:07:07;101140.53;;;22.36;39.83
66524;BME280;53350;52.210;5.160;2022-09-03T08:09:33;101144.59;;;22.42;40.29
66524;BME280;53350;52.210;5.160;2022-09-03T08:12:00;101150.91;;;22.53;40.04
66524;BME280;53350;52.210;5.160;2022-09-03T08:14:26;101152.66;;;22.69;39.77
66524;BME280;53350;52.210;5.160;2022-09-03T08:16:55;101148.91;;;22.73;39.37
66524;BME280;53350;52.210;5.160;2022-09-03T08:19:24;101147.84;;;22.91;39.32
66524;BME280;53350;52.210;5.160;2022-09-03T08:21:50;101153.47;;;23.00;39.60
66524;BME280;53350;52.210;5.160;2022-09-03T08:24:17;101154.38;;;23.15;38.96
66524;BME280;53350;52.210;5.160;2022-09-03T08:26:45;101158.03;;;23.26;38.59
66524;BME280;53350;52.210;5.160;2022-09-03T08:29:11;101165.00;;;23.42;38.28
66524;BME280;53350;52.210;5.160;2022-09-03T08:31:37;101154.81;;;23.50;38.11
66524;BME280;53350;52.210;5.160;2022-09-03T08:34:05;101147.41;;;23.57;38.01
66524;BME280;53350;52.210;5.160;2022-09-03T08:36:32;101156.63;;;23.64;37.86
66524;BME280;53350;52.210;5.160;2022-09-03T08:39:00;101152.25;;;23.77;37.83
66524;BME280;53350;52.210;5.160;2022-09-03T08:41:32;101160.16;;;23.92;37.68
66524;BME280;53350;52.210;5.160;2022-09-03T08:44:09;101156.66;;;24.06;37.93
66524;BME280;53350;52.210;5.160;2022-09-03T08:46:46;101157.13;;;24.25;37.47
66524;BME280;53350;52.210;5.160;2022-09-03T08:49:18;101159.31;;;24.46;37.22
66524;BME280;53350;52.210;5.160;2022-09-03T08:51:46;101156.53;;;24.62;36.26
66524;BME280;53350;52.210;5.160;2022-09-03T08:54:14;101155.06;;;24.71;35.98
66524;BME280;53350;52.210;5.160;2022-09-03T08:56:41;101157.94;;;24.80;36.42
66524;BME280;53350;52.210;5.160;2022-09-03T08:59:08;101163.44;;;24.90;35.76
66524;BME280;53350;52.210;5.160;2022-09-03T09:01:37;101150.38;;;25.02;35.74
66524;BME280;53350;52.210;5.160;2022-09-03T09:04:09;101154.91;;;25.12;35.24
66524;BME280;53350;52.210;5.160;2022-09-03T09:06:45;101151.53;;;25.23;35.02
66524;BME280;53350;52.210;5.160;2022-09-03T09:09:18;101159.84;;;25.17;34.34
66524;BME280;53350;52.210;5.160;2022-09-03T09:11:49;101155.66;;;25.14;34.89
66524;BME280;53350;52.210;5.160;2022-09-03T09:14:22;101155.66;;;25.14;34.58
66524;BME280;53350;52.210;5.160;2022-09-03T09:16:53;101158.28;;;25.14;34.67
66524;BME280;53350;52.210;5.160;2022-09-03T09:19:27;101148.34;;;25.18;34.76
66524;BME280;53350;52.210;5.160;2022-09-03T09:21:59;101153.44;;;25.34;34.56
66524;BME280;53350;52.210;5.160;2022-09-03T09:24:28;101156.16;;;25.45;34.15
66524;BME280;53350;52.210;5.160;2022-09-03T09:26:59;101154.25;;;25.47;34.30
66524;BME280;53350;52.210;5.160;2022-09-03T09:29:26;101152.66;;;25.58;34.18
66524;BME280;53350;52.210;5.160;2022-09-03T09:31:53;101148.75;;;25.63;33.84
66524;BME280;53350;52.210;5.160;2022-09-03T09:34:20;101145.38;;;25.61;34.27
66524;BME280;53350;52.210;5.160;2022-09-03T09:36:48;101146.75;;;25.67;33.96
66524;BME280;53350;52.210;5.160;2022-09-03T09:39:16;101145.78;;;25.68;34.16
66524;BME280;53350;52.210;5.160;2022-09-03T09:41:55;101152.84;;;25.67;34.04
66524;BME280;53350;52.210;5.160;2022-09-03T09:44:24;101144.19;;;25.78;34.27
66524;BME280;53350;52.210;5.160;2022-09-03T09:46:50;101141.16;;;25.96;33.73
66524;BME280;53350;52.210;5.160;2022-09-03T09:49:28;101140.50;;;26.05;33.09
66524;BME280;53350;52.210;5.160;2022-09-03T09:52:00;101147.03;;;25.99;32.67
66524;BME280;53350;52.210;5.160;2022-09-03T09:54:28;101142.59;;;26.13;33.18
66524;BME280;53350;52.210;5.160;2022-09-03T09:56:58;101146.97;;;26.25;32.98
66524;BME280;53350;52.210;5.160;2022-09-03T09:59:25;101147.25;;;26.33;32.19
66524;BME280;53350;52.210;5.160;2022-09-03T10:02:01;101148.31;;;26.31;32.81
66524;BME280;53350;52.210;5.160;2022-09-03T10:04:29;101147.97;;;26.35;32.42
66524;BME280;53350;52.210;5.160;2022-09-03T10:06:57;101145.72;;;26.42;32.32
66524;BME280;53350;52.210;5.160;2022-09-03T10:09:27;101145.25;;;26.48;32.25
66524;BME280;53350;52.210;5.160;2022-09-03T10:11:57;101138.31;;;26.59;32.29
66524;BME280;53350;52.210;5.160;2022-09-03T10:14:28;101138.81;;;26.64;32.70
66524;BME280;53350;52.210;5.160;2022-09-03T10:16:58;101139.34;;;26.69;32.09
66524;BME280;53350;52.210;5.160;2022-09-03T10:19:27;101141.75;;;26.72;32.16
66524;BME280;53350;52.210;5.160;2022-09-03T10:22:00;101134.78;;;26.71;32.29
66524;BME280;53350;52.210;5.160;2022-09-03T10:24:32;101134.03;;;26.69;31.71
66524;BME280;53350;52.210;5.160;2022-09-03T10:27:05;101129.09;;;26.64;32.28
66524;BME280;53350;52.210;5.160;2022-09-03T10:29:31;101131.47;;;26.56;31.89
66524;BME280;53350;52.210;5.160;2022-09-03T10:32:01;101130.78;;;26.65;32.16
66524;BME280;53350;52.210;5.160;2022-09-03T10:34:31;101127.56;;;26.73;32.05
66524;BME280;53350;52.210;5.160;2022-09-03T10:37:01;101128.06;;;26.78;32.03
66524;BME280;53350;52.210;5.160;2022-09-03T10:39:37;101125.31;;;26.80;31.67
66524;BME280;53350;52.210;5.160;2022-09-03T10:42:11;101121.94;;;26.89;31.24
66524;BME280;53350;52.210;5.160;2022-09-03T10:44:56;101121.25;;;26.87;31.40
66524;BME280;53350;52.210;5.160;2022-09-03T10:47:31;101114.63;;;26.93;31.29
66524;BME280;53350;52.210;5.160;2022-09-03T10:50:04;101112.47;;;26.98;31.33
66524;BME280;53350;52.210;5.160;2022-09-03T10:52:35;101109.00;;;27.09;31.57
66524;BME280;53350;52.210;5.160;2022-09-03T10:55:09;101116.69;;;27.23;30.83
66524;BME280;53350;52.210;5.160;2022-09-03T10:57:43;101114.63;;;27.15;30.84
66524;BME280;53350;52.210;5.160;2022-09-03T11:00:11;101110.06;;;27.06;30.80
66524;BME280;53350;52.210;5.160;2022-09-03T11:02:56;101119.09;;;27.03;30.88
66524;BME280;53350;52.210;5.160;2022-09-03T11:05:30;101107.91;;;27.00;31.14
66524;BME280;53350;52.210;5.160;2022-09-03T11:08:01;101115.59;;;27.03;31.01
66524;BME280;53350;52.210;5.160;2022-09-03T11:10:31;101105.75;;;27.05;30.85
66524;BME280;53350;52.210;5.160;2022-09-03T11:13:01;101090.13;;;27.02;31.19
66524;BME280;53350;52.210;5.160;2022-09-03T11:15:29;101108.88;;;27.21;31.43
66524;BME280;53350;52.210;5.160;2022-09-03T11:17:58;101117.91;;;27.30;31.22
66524;BME280;53350;52.210;5.160;2022-09-03T11:20:26;101105.16;;;27.35;31.17
66524;BME280;53350;52.210;5.160;2022-09-03T11:22:53;101105.16;;;27.47;31.16
66524;BME280;53350;52.210;5.160;2022-09-03T11:25:21;101108.16;;;27.53;30.85
66524;BME280;53350;52.210;5.160;2022-09-03T11:27:54;101107.91;;;27.56;31.07
66524;BME280;53350;52.210;5.160;2022-09-03T11:30:25;101093.34;;;27.62;30.95
66524;BME280;53350;52.210;5.160;2022-09-03T11:32:54;101095.25;;;27.71;30.99
66524;BME280;53350;52.210;5.160;2022-09-03T11:35:25;101098.25;;;27.78;30.27
66524;BME280;53350;52.210;5.160;2022-09-03T11:37:52;101094.28;;;27.72;30.57
66524;BME280;53350;52.210;5.160;2022-09-03T11:40:20;101083.25;;;27.56;30.34
66524;BME280;53350;52.210;5.160;2022-09-03T11:43:04;101098.25;;;27.67;30.77
66524;BME280;53350;52.210;5.160;2022-09-03T11:45:35;101086.81;;;27.66;30.90
66524;BME280;53350;52.210;5.160;2022-09-03T11:48:10;101086.72;;;27.68;30.84
66524;BME280;53350;52.210;5.160;2022-09-03T11:50:49;101090.28;;;27.78;30.61
66524;BME280;53350;52.210;5.160;2022-09-03T11:53:21;101078.84;;;27.77;30.64
66524;BME280;53350;52.210;5.160;2022-09-03T11:55:51;101081.25;;;27.81;30.66
66524;BME280;53350;52.210;5.160;2022-09-03T11:58:18;101082.94;;;27.82;30.40
66524;BME280;53350;52.210;5.160;2022-09-03T12:00:49;101086.78;;;27.77;30.55
66524;BME280;53350;52.210;5.160;2022-09-03T12:03:20;101083.81;;;27.71;30.58
66524;BME280;53350;52.210;5.160;2022-09-03T12:05:55;101083.94;;;27.69;30.74
66524;BME280;53350;52.210;5.160;2022-09-03T12:08:40;101085.13;;;27.76;30.76
66524;BME280;53350;52.210;5.160;2022-09-03T12:11:16;101096.78;;;27.85;30.63
66524;BME280;53350;52.210;5.160;2022-09-03T12:13:49;101089.28;;;27.90;30.48
66524;BME280;53350;52.210;5.160;2022-09-03T12:16:24;101093.50;;;27.93;30.07
66524;BME280;53350;52.210;5.160;2022-09-03T12:19:00;101088.91;;;27.95;29.80
66524;BME280;53350;52.210;5.160;2022-09-03T12:21:28;101086.88;;;27.87;29.83
66524;BME280;53350;52.210;5.160;2022-09-03T12:23:54;101090.47;;;27.98;30.20
66524;BME280;53350;52.210;5.160;2022-09-03T12:26:21;101085.41;;;28.06;30.11
66524;BME280;53350;52.210;5.160;2022-09-03T12:28:49;101094.19;;;28.06;30.05
66524;BME280;53350;52.210;5.160;2022-09-03T12:31:16;101095.28;;;28.04;29.51
66524;BME280;53350;52.210;5.160;2022-09-03T12:33:49;101102.25;;;28.05;29.79
66524;BME280;53350;52.210;5.160;2022-09-03T12:36:17;101091.53;;;27.95;29.96
66524;BME280;53350;52.210;5.160;2022-09-03T12:38:44;101092.28;;;27.97;29.98
66524;BME280;53350;52.210;5.160;2022-09-03T12:41:18;101092.28;;;27.97;29.79
66524;BME280;53350;52.210;5.160;2022-09-03T12:43:48;101090.34;;;27.99;30.04
66524;BME280;53350;52.210;5.160;2022-09-03T12:46:15;101088.88;;;28.06;30.30
66524;BME280;53350;52.210;5.160;2022-09-03T12:48:45;101082.38;;;28.10;30.17
66524;BME280;53350;52.210;5.160;2022-09-03T12:51:13;101088.00;;;28.17;30.20
66524;BME280;53350;52.210;5.160;2022-09-03T12:53:39;101083.75;;;28.26;29.53
66524;BME280;53350;52.210;5.160;2022-09-03T12:56:06;101089.06;;;28.26;29.32
66524;BME280;53350;52.210;5.160;2022-09-03T12:58:35;101092.66;;;28.25;29.56
66524;BME280;53350;52.210;5.160;2022-09-03T13:01:05;101097.97;;;28.25;29.70
66524;BME280;53350;52.210;5.160;2022-09-03T13:03:37;101081.81;;;28.28;29.48